createdAt,value
2023-04-09T00:01:02.958Z,9.63
2023-04-09T00:03:05.864Z,9.40
2023-04-09T00:05:09.159Z,9.55
2023-04-09T00:07:11.932Z,9.02
2023-04-09T00:09:14.740Z,9.05
2023-04-09T00:11:17.537Z,9.55
2023-04-09T00:13:31.934Z,9.45
2023-04-09T00:15:41.724Z,9.00
2023-04-09T00:17:44.451Z,8.82
2023-04-09T00:19:47.180Z,8.80
2023-04-09T00:21:49.850Z,7.97
2023-04-09T00:23:52.527Z,8.45
2023-04-09T00:25:55.209Z,9.75
2023-04-09T00:27:58.154Z,9.55
2023-04-09T00:30:02.235Z,9.40
2023-04-09T00:32:05.032Z,9.27
2023-04-09T00:34:07.739Z,8.68
2023-04-09T00:36:10.450Z,8.20
2023-04-09T00:38:13.214Z,8.23
2023-04-09T00:40:16.261Z,8.57
2023-04-09T00:42:18.969Z,8.20
2023-04-09T00:44:21.654Z,8.68
2023-04-09T00:46:26.037Z,9.57
2023-04-09T00:48:28.937Z,8.43
2023-04-09T00:50:31.666Z,8.57
2023-04-09T00:52:34.860Z,8.52
2023-04-09T00:54:37.875Z,8.57
2023-04-09T00:56:41.404Z,7.82
2023-04-09T00:58:44.250Z,7.95
2023-04-09T01:00:47.008Z,8.10
2023-04-09T01:02:52.885Z,8.35
2023-04-09T01:04:55.993Z,8.02
2023-04-09T01:07:04.893Z,8.27
2023-04-09T01:09:15.734Z,7.80
2023-04-09T01:11:32.496Z,8.30
2023-04-09T01:13:43.591Z,8.40
2023-04-09T01:15:50.460Z,8.48
2023-04-09T01:18:06.303Z,9.23
2023-04-09T01:20:13.090Z,7.53
2023-04-09T01:24:42.716Z,7.65
2023-04-09T01:26:58.326Z,7.90
2023-04-09T01:29:06.450Z,8.27
2023-04-09T01:31:13.981Z,7.47
2023-04-09T01:33:18.902Z,8.32
2023-04-09T01:35:22.527Z,8.85
2023-04-09T01:37:26.464Z,8.05
2023-04-09T01:39:30.010Z,7.93
2023-04-09T01:41:35.361Z,8.55
2023-04-09T01:43:39.168Z,8.15
2023-04-09T01:45:45.325Z,7.50
2023-04-09T01:47:48.692Z,8.50
2023-04-09T01:49:52.666Z,8.60
2023-04-09T01:51:55.608Z,8.48
2023-04-09T01:53:58.565Z,8.07
2023-04-09T01:56:02.100Z,8.00
2023-04-09T01:58:04.883Z,8.02
2023-04-09T02:00:09.344Z,7.47
2023-04-09T02:02:19.863Z,8.40
2023-04-09T02:04:25.814Z,8.02
2023-04-09T02:06:35.828Z,7.78
2023-04-09T02:08:38.885Z,7.80
2023-04-09T02:10:41.899Z,7.72
2023-04-09T02:12:49.990Z,7.82
2023-04-09T02:14:54.316Z,7.80
2023-04-09T02:16:57.813Z,7.85
2023-04-09T02:19:02.135Z,7.78
2023-04-09T02:21:05.866Z,8.70
2023-04-09T02:23:08.525Z,7.57
2023-04-09T02:25:11.245Z,7.57
2023-04-09T02:27:13.916Z,7.25
2023-04-09T02:29:16.685Z,7.70
2023-04-09T02:31:19.493Z,8.10
2023-04-09T02:33:22.476Z,7.88
2023-04-09T02:35:26.679Z,8.00
2023-04-09T02:37:29.388Z,8.55
2023-04-09T02:39:32.021Z,7.78
2023-04-09T02:41:34.784Z,8.27
2023-04-09T02:43:37.957Z,7.70
2023-04-09T02:45:40.707Z,7.72
2023-04-09T02:47:43.426Z,8.43
2023-04-09T02:49:46.233Z,7.97
2023-04-09T02:51:50.351Z,8.50
2023-04-09T02:53:53.054Z,8.80
2023-04-09T02:55:55.763Z,8.52
2023-04-09T02:57:58.462Z,8.40
2023-04-09T03:00:01.159Z,8.38
2023-04-09T03:02:04.063Z,7.68
2023-04-09T03:04:06.924Z,7.70
2023-04-09T03:06:09.747Z,8.13
2023-04-09T03:08:13.969Z,8.30
2023-04-09T03:10:16.709Z,9.02
2023-04-09T03:12:19.464Z,8.23
2023-04-09T03:14:22.180Z,8.07
2023-04-09T03:16:25.992Z,7.35
2023-04-09T03:18:28.909Z,8.02
2023-04-09T03:20:31.639Z,7.80
2023-04-09T03:22:37.194Z,8.27
2023-04-09T03:24:41.288Z,8.35
2023-04-09T03:26:44.133Z,8.30
2023-04-09T03:28:46.904Z,8.93
2023-04-09T03:30:49.708Z,8.27
2023-04-09T03:32:52.490Z,8.50
2023-04-09T03:34:55.328Z,8.95
2023-04-09T03:36:58.954Z,8.95
2023-04-09T03:39:01.861Z,8.70
2023-04-09T03:41:06.071Z,8.82
2023-04-09T03:43:08.773Z,7.63
2023-04-09T03:45:12.057Z,8.32
2023-04-09T03:47:14.705Z,9.25
2023-04-09T03:49:17.386Z,9.07
2023-04-09T03:51:20.118Z,8.80
2023-04-09T03:53:22.795Z,8.70
2023-04-09T03:55:25.474Z,9.18
2023-04-09T03:57:29.503Z,9.23
2023-04-09T03:59:32.237Z,9.00
2023-04-09T04:01:35.124Z,8.63
2023-04-09T04:03:38.203Z,8.60
2023-04-09T04:05:41.182Z,9.32
2023-04-09T04:07:44.972Z,8.52
2023-04-09T04:09:47.663Z,9.98
2023-04-09T04:11:50.334Z,9.50
2023-04-09T04:13:55.800Z,9.93
2023-04-09T04:15:58.732Z,9.35
2023-04-09T04:18:01.471Z,8.45
2023-04-09T04:20:04.281Z,9.20
2023-04-09T04:22:06.981Z,9.73
2023-04-09T04:24:09.714Z,8.55
2023-04-09T04:26:12.572Z,10.20
2023-04-09T04:28:15.346Z,8.25
2023-04-09T04:30:19.570Z,9.07
2023-04-09T04:32:22.596Z,8.77
2023-04-09T04:34:25.384Z,8.43
2023-04-09T04:36:28.058Z,9.13
2023-04-09T04:38:30.747Z,8.52
2023-04-09T04:40:33.429Z,9.38
2023-04-09T04:42:36.161Z,9.05
2023-04-09T04:44:38.826Z,9.02
2023-04-09T04:46:42.911Z,8.75
2023-04-09T04:48:45.576Z,8.52
2023-04-09T04:50:48.317Z,9.63
2023-04-09T04:52:51.052Z,9.50
2023-04-09T04:54:53.836Z,9.07
2023-04-09T04:56:56.941Z,8.77
2023-04-09T04:58:59.617Z,8.25
2023-04-09T05:01:02.305Z,8.75
2023-04-09T05:03:07.004Z,8.27
2023-04-09T05:05:10.017Z,8.15
2023-04-09T05:07:12.754Z,8.32
2023-04-09T05:09:15.658Z,9.18
2023-04-09T05:11:18.316Z,7.70
2023-04-09T05:13:20.993Z,8.55
2023-04-09T05:15:23.696Z,8.18
2023-04-09T05:17:26.414Z,8.82
2023-04-09T05:19:30.543Z,8.52
2023-04-09T05:21:33.256Z,9.65
2023-04-09T05:23:35.914Z,9.52
2023-04-09T05:25:38.635Z,9.27
2023-04-09T05:27:41.469Z,8.55
2023-04-09T05:29:44.148Z,9.32
2023-04-09T05:31:46.834Z,8.93
2023-04-09T05:33:49.614Z,8.73
2023-04-09T05:35:53.700Z,8.90
2023-04-09T05:37:56.946Z,8.60
2023-04-09T05:39:59.666Z,7.80
2023-04-09T05:42:02.452Z,7.75
2023-04-09T05:44:05.764Z,8.38
2023-04-09T05:46:08.430Z,8.68
2023-04-09T05:48:11.246Z,8.02
2023-04-09T05:50:14.047Z,8.95
2023-04-09T05:52:18.065Z,8.55
2023-04-09T05:54:20.746Z,8.18
2023-04-09T05:56:23.634Z,8.73
2023-04-09T05:58:27.363Z,8.18
2023-04-09T06:00:30.156Z,8.63
2023-04-09T06:02:32.951Z,8.80
2023-04-09T06:04:35.834Z,7.82
2023-04-09T06:06:39.614Z,8.38
2023-04-09T06:08:44.934Z,8.38
2023-04-09T06:10:47.616Z,7.45
2023-04-09T06:12:50.495Z,8.10
2023-04-09T06:14:53.340Z,8.60
2023-04-09T06:16:56.213Z,7.93
2023-04-09T06:18:58.914Z,8.10
2023-04-09T06:21:05.240Z,7.97
2023-04-09T06:23:08.054Z,8.50
2023-04-09T06:25:12.246Z,8.25
2023-04-09T06:27:15.006Z,8.10
2023-04-09T06:29:17.911Z,6.93
2023-04-09T06:31:20.599Z,7.57
2023-04-09T06:33:23.616Z,7.90
2023-04-09T06:35:26.352Z,8.52
2023-04-09T06:37:29.010Z,7.60
2023-04-09T06:39:32.956Z,8.88
2023-04-09T06:41:37.118Z,8.23
2023-04-09T06:43:39.844Z,7.18
2023-04-09T06:45:42.647Z,7.20
2023-04-09T06:47:45.427Z,7.35
2023-04-09T06:49:48.079Z,7.13
2023-04-09T06:51:51.989Z,7.03
2023-04-09T06:53:55.089Z,7.43
2023-04-09T06:55:58.067Z,7.10
2023-04-09T06:58:02.777Z,7.22
2023-04-09T07:00:06.211Z,6.97
2023-04-09T07:02:09.301Z,7.80
2023-04-09T07:04:12.202Z,7.32
2023-04-09T07:06:14.893Z,7.28
2023-04-09T07:08:17.602Z,7.68
2023-04-09T07:10:20.330Z,7.18
2023-04-09T07:12:29.314Z,7.40
2023-04-09T07:14:33.365Z,6.78
2023-04-09T07:16:36.154Z,7.13
2023-04-09T07:18:38.944Z,6.75
2023-04-09T07:20:41.553Z,5.97
2023-04-09T07:22:44.300Z,6.25
2023-04-09T07:24:47.112Z,5.65
2023-04-09T07:26:52.050Z,5.72
2023-04-09T07:28:56.096Z,5.53
2023-04-09T07:31:02.856Z,5.05
2023-04-09T07:33:05.610Z,5.05
2023-04-09T07:35:11.278Z,4.65
2023-04-09T07:37:14.089Z,5.72
2023-04-09T07:39:17.370Z,5.15
2023-04-09T07:41:20.891Z,4.85
2023-04-09T07:43:23.577Z,4.47
2023-04-09T07:45:26.489Z,5.03
2023-04-09T07:47:31.300Z,4.82
2023-04-09T07:49:34.176Z,5.13
2023-04-09T07:51:36.837Z,4.50
2023-04-09T07:53:39.576Z,4.70
2023-04-09T07:55:42.448Z,4.28
2023-04-09T07:57:45.352Z,5.13
2023-04-09T07:59:48.086Z,5.40
2023-04-09T08:01:51.056Z,5.57
2023-04-09T08:03:55.316Z,6.05
2023-04-09T08:05:58.087Z,5.75
2023-04-09T08:08:00.785Z,6.10
2023-04-09T08:10:03.536Z,5.80
2023-04-09T08:12:06.430Z,5.25
2023-04-09T08:14:12.828Z,6.03
2023-04-09T08:16:15.522Z,5.68
2023-04-09T08:18:18.210Z,5.03
2023-04-09T08:20:22.404Z,5.40
2023-04-09T08:22:25.075Z,5.32
2023-04-09T08:24:28.202Z,5.22
2023-04-09T08:26:30.970Z,4.50
2023-04-09T08:28:33.672Z,5.13
2023-04-09T08:30:36.341Z,4.88
2023-04-09T08:32:39.048Z,5.32
2023-04-09T08:34:41.798Z,5.22
2023-04-09T08:36:49.767Z,4.68
2023-04-09T08:38:53.267Z,5.88
2023-04-09T08:40:56.069Z,5.47
2023-04-09T08:43:00.609Z,5.95
2023-04-09T08:45:05.180Z,5.55
2023-04-09T08:47:10.169Z,6.60
2023-04-09T08:49:13.323Z,5.05
2023-04-09T08:51:16.418Z,6.57
2023-04-09T08:53:22.271Z,6.10
2023-04-09T08:55:25.294Z,5.57
2023-04-09T08:57:28.158Z,4.97
2023-04-09T08:59:31.233Z,5.03
2023-04-09T09:01:34.063Z,5.28
2023-04-09T09:03:55.159Z,4.55
2023-04-09T09:05:58.921Z,5.55
2023-04-09T09:08:02.264Z,5.53
2023-04-09T09:10:07.404Z,5.25
2023-04-09T09:12:10.152Z,5.82
2023-04-09T09:14:14.079Z,4.78
2023-04-09T09:16:17.943Z,5.20
2023-04-09T09:18:20.837Z,4.97
2023-04-09T09:20:24.375Z,5.65
2023-04-09T09:22:27.238Z,4.65
2023-04-09T09:24:30.367Z,4.95
2023-04-09T09:26:39.582Z,4.65
2023-04-09T09:28:42.636Z,4.60
2023-04-09T09:30:49.184Z,4.70
2023-04-09T09:32:55.670Z,4.65
2023-04-09T09:35:06.606Z,5.13
2023-04-09T09:37:27.924Z,4.45
2023-04-09T09:39:44.294Z,4.47
2023-04-09T09:41:48.854Z,3.80
2023-04-09T09:43:51.950Z,4.80
2023-04-09T09:45:54.969Z,4.05
2023-04-09T09:47:57.715Z,5.18
2023-04-09T09:50:00.565Z,4.18
2023-04-09T09:52:06.421Z,4.65
2023-04-09T09:54:10.722Z,4.22
2023-04-09T09:56:17.911Z,4.78
2023-04-09T09:58:27.430Z,5.35
2023-04-09T10:00:33.274Z,4.70
2023-04-09T10:02:45.135Z,4.18
2023-04-09T10:04:50.611Z,4.25
2023-04-09T10:06:53.977Z,5.10
2023-04-09T10:08:59.213Z,4.85
2023-04-09T10:11:02.364Z,5.07
2023-04-09T10:13:08.193Z,5.15
2023-04-09T10:15:12.990Z,5.55
2023-04-09T10:17:16.181Z,5.35
2023-04-09T10:19:19.467Z,4.25
2023-04-09T10:21:32.590Z,4.45
2023-04-09T10:23:39.559Z,4.72
2023-04-09T10:25:42.727Z,4.80
2023-04-09T10:27:48.312Z,4.80
2023-04-09T10:29:52.829Z,4.55
2023-04-09T10:32:05.630Z,4.30
2023-04-09T10:34:10.762Z,3.97
2023-04-09T10:36:14.204Z,3.97
2023-04-09T10:38:16.999Z,4.78
2023-04-09T10:40:21.649Z,4.30
2023-04-09T10:42:30.246Z,3.72
2023-04-09T10:44:32.986Z,3.35
2023-04-09T10:46:37.379Z,3.60
2023-04-09T10:48:41.438Z,3.80
2023-04-09T10:50:45.329Z,4.95
2023-04-09T10:52:52.972Z,3.80
2023-04-09T10:54:55.914Z,3.90
2023-04-09T10:57:19.200Z,5.00
2023-04-09T10:59:21.842Z,3.90
2023-04-09T11:01:26.524Z,4.70
2023-04-09T11:03:30.623Z,4.43
2023-04-09T11:05:38.125Z,4.45
2023-04-09T11:07:46.148Z,3.72
2023-04-09T11:09:48.829Z,3.05
2023-04-09T11:11:53.863Z,3.90
2023-04-09T11:14:01.489Z,4.20
2023-04-09T11:16:07.003Z,4.50
2023-04-09T11:18:10.911Z,3.97
2023-04-09T11:20:14.571Z,3.92
2023-04-09T11:22:18.742Z,4.35
2023-04-09T11:24:21.503Z,4.40
2023-04-09T11:26:35.911Z,3.22
2023-04-09T11:28:42.291Z,3.25
2023-04-09T11:30:46.800Z,4.05
2023-04-09T11:32:50.131Z,4.88
2023-04-09T11:34:53.739Z,3.67
2023-04-09T11:36:58.927Z,3.92
2023-04-09T11:39:04.017Z,3.50
2023-04-09T11:41:06.820Z,4.20
2023-04-09T11:43:09.610Z,3.90
2023-04-09T11:45:13.112Z,3.67
2023-04-09T11:47:16.913Z,4.03
2023-04-09T11:49:19.647Z,3.80
2023-04-09T11:51:22.455Z,3.70
2023-04-09T11:53:31.776Z,4.10
2023-04-09T11:55:35.987Z,4.40
2023-04-09T11:57:41.644Z,4.15
2023-04-09T11:59:44.666Z,4.43
2023-04-09T12:01:51.191Z,3.83
2023-04-09T12:05:56.970Z,3.85
2023-04-09T12:08:01.698Z,3.28
2023-04-09T12:10:06.194Z,3.35
2023-04-09T12:12:11.390Z,3.20
2023-04-09T12:14:16.144Z,4.20
2023-04-09T12:16:21.105Z,3.55
2023-04-09T12:18:24.370Z,3.83
2023-04-09T12:20:31.946Z,4.47
2023-04-09T12:22:36.129Z,3.90
2023-04-09T12:24:38.763Z,3.90
2023-04-09T12:26:41.431Z,4.10
2023-04-09T12:28:45.492Z,4.13
2023-04-09T12:30:49.120Z,3.97
2023-04-09T12:32:53.019Z,3.88
2023-04-09T12:34:55.817Z,4.32
2023-04-09T12:36:58.562Z,4.30
2023-04-09T12:39:01.563Z,4.10
2023-04-09T12:41:04.344Z,3.38
2023-04-09T12:43:07.099Z,3.50
2023-04-09T12:45:13.957Z,3.20
2023-04-09T12:47:16.658Z,3.90
2023-04-09T12:49:19.908Z,3.80
2023-04-09T12:51:22.973Z,3.47
2023-04-09T12:53:25.720Z,3.70
2023-04-09T12:55:28.905Z,3.22
2023-04-09T12:57:31.896Z,4.03
2023-04-09T12:59:34.636Z,2.85
2023-04-09T13:01:40.184Z,2.97
2023-04-09T13:03:44.263Z,3.42
2023-04-09T13:05:47.294Z,3.03
2023-04-09T13:07:50.009Z,3.80
2023-04-09T13:09:52.919Z,3.60
2023-04-09T13:11:56.008Z,3.10
2023-04-09T13:13:58.763Z,3.30
2023-04-09T13:16:02.143Z,3.38
2023-04-09T13:18:06.633Z,3.10
2023-04-09T13:20:10.374Z,3.38
2023-04-09T13:22:13.109Z,3.53
2023-04-09T13:24:15.835Z,3.63
2023-04-09T13:26:18.528Z,3.25
2023-04-09T13:28:21.336Z,3.53
2023-04-09T13:30:24.264Z,3.08
2023-04-09T13:32:27.071Z,3.65
2023-04-09T13:34:31.213Z,3.35
2023-04-09T13:36:33.991Z,3.35
2023-04-09T13:38:36.721Z,3.40
2023-04-09T13:40:39.403Z,3.70
2023-04-09T13:42:42.068Z,3.20
2023-04-09T13:44:45.563Z,3.30
2023-04-09T13:46:48.294Z,3.50
2023-04-09T13:48:51.133Z,3.40
2023-04-09T13:50:55.380Z,2.80
2023-04-09T13:52:58.173Z,3.33
2023-04-09T13:55:01.236Z,3.13
2023-04-09T13:57:04.566Z,3.22
2023-04-09T13:59:07.308Z,3.80
2023-04-09T14:01:10.418Z,2.72
2023-04-09T14:03:14.229Z,3.45
2023-04-09T14:05:17.097Z,2.95
2023-04-09T14:07:21.216Z,2.85
2023-04-09T14:09:24.274Z,3.33
2023-04-09T14:11:27.019Z,3.58
2023-04-09T14:13:30.408Z,3.28
2023-04-09T14:15:33.379Z,2.67
2023-04-09T14:17:36.264Z,3.08
2023-04-09T14:19:39.170Z,3.05
2023-04-09T14:21:42.059Z,3.00
2023-04-09T14:23:46.334Z,3.10
2023-04-09T14:25:49.000Z,3.00
2023-04-09T14:27:52.119Z,3.08
2023-04-09T14:29:54.797Z,3.20
2023-04-09T14:31:57.692Z,3.03
2023-04-09T14:34:00.386Z,2.65
2023-04-09T14:36:03.101Z,3.08
2023-04-09T14:38:05.847Z,3.25
2023-04-09T14:40:10.683Z,3.25
2023-04-09T14:42:14.296Z,3.90
2023-04-09T14:44:17.034Z,3.30
2023-04-09T14:46:20.316Z,3.05
2023-04-09T14:48:23.021Z,3.50
2023-04-09T14:50:25.786Z,3.88
2023-04-09T14:52:30.318Z,2.75
2023-04-09T14:54:33.805Z,3.42
2023-04-09T14:56:37.991Z,3.63
2023-04-09T14:58:40.651Z,3.85
2023-04-09T15:00:44.864Z,3.50
2023-04-09T15:02:48.195Z,3.40
2023-04-09T15:04:51.187Z,3.85
2023-04-09T15:06:53.888Z,3.20
2023-04-09T15:08:56.584Z,3.63
2023-04-09T15:10:59.369Z,3.30
2023-04-09T15:13:03.405Z,3.58
2023-04-09T15:15:08.085Z,3.53
2023-04-09T15:17:10.810Z,3.53
2023-04-09T15:19:13.464Z,2.78
2023-04-09T15:21:16.092Z,3.25
2023-04-09T15:23:18.788Z,3.45
2023-04-09T15:25:21.556Z,2.95
2023-04-09T15:27:24.281Z,3.35
2023-04-09T15:29:28.422Z,3.25
2023-04-09T15:31:31.419Z,3.35
2023-04-09T15:33:34.179Z,3.20
2023-04-09T15:35:37.743Z,3.60
2023-04-09T15:37:40.546Z,3.65
2023-04-09T15:39:43.606Z,3.70
2023-04-09T15:41:46.537Z,3.20
2023-04-09T15:43:49.187Z,3.50
2023-04-09T15:45:53.307Z,3.35
2023-04-09T15:47:56.071Z,4.25
2023-04-09T15:49:59.336Z,4.20
2023-04-09T15:52:02.003Z,3.45
2023-04-09T15:54:04.946Z,3.95
2023-04-09T15:56:09.786Z,3.85
2023-04-09T15:58:13.669Z,3.33
2023-04-09T16:00:16.521Z,3.47
2023-04-09T16:02:20.775Z,3.53
2023-04-09T16:04:23.530Z,3.92
2023-04-09T16:06:26.297Z,3.20
2023-04-09T16:08:28.962Z,3.97
2023-04-09T16:10:31.862Z,3.53
2023-04-09T16:12:34.539Z,4.03
2023-04-09T16:14:37.852Z,4.10
2023-04-09T16:16:40.785Z,4.75
2023-04-09T16:18:44.837Z,3.75
2023-04-09T16:20:47.595Z,4.53
2023-04-09T16:22:50.400Z,4.05
2023-04-09T16:24:53.142Z,3.85
2023-04-09T16:26:56.410Z,3.50
2023-04-09T16:29:02.952Z,3.60
2023-04-09T16:33:08.741Z,3.90
2023-04-09T16:35:12.832Z,3.25
2023-04-09T16:37:15.665Z,3.40
2023-04-09T16:39:19.499Z,3.33
2023-04-09T16:41:22.180Z,3.35
2023-04-09T16:43:26.053Z,2.67
2023-04-09T16:45:30.002Z,3.53
2023-04-09T16:47:32.816Z,3.53
2023-04-09T16:49:35.498Z,3.10
2023-04-09T16:51:39.626Z,3.03
2023-04-09T16:53:42.305Z,3.42
2023-04-09T16:55:45.061Z,3.22
2023-04-09T16:57:47.707Z,3.88
2023-04-09T16:59:50.784Z,3.35
2023-04-09T17:01:53.654Z,3.67
2023-04-09T17:03:57.266Z,3.47
2023-04-09T17:06:00.059Z,3.42
2023-04-09T17:08:04.148Z,3.35
2023-04-09T17:10:08.241Z,3.42
2023-04-09T17:12:11.218Z,3.55
2023-04-09T17:14:14.045Z,3.30
2023-04-09T17:16:18.112Z,3.22
2023-04-09T17:18:20.856Z,3.20
2023-04-09T17:20:24.894Z,3.70
2023-04-09T17:22:27.688Z,3.65
2023-04-09T17:24:31.827Z,3.35
2023-04-09T17:26:34.688Z,3.38
2023-04-09T17:28:37.391Z,3.55
2023-04-09T17:30:40.099Z,3.55
2023-04-09T17:32:44.033Z,3.15
2023-04-09T17:34:48.127Z,3.53
2023-04-09T17:36:56.439Z,4.05
2023-04-09T17:38:59.166Z,3.83
2023-04-09T17:41:04.293Z,3.35
2023-04-09T17:43:08.046Z,3.80
2023-04-09T17:45:11.844Z,3.20
2023-04-09T17:47:14.654Z,3.83
2023-04-09T17:49:17.345Z,3.58
2023-04-09T17:51:20.829Z,3.58
2023-04-09T17:53:23.620Z,3.60
2023-04-09T17:55:26.326Z,3.92
2023-04-09T17:57:30.310Z,3.55
2023-04-09T17:59:34.352Z,3.35
2023-04-09T18:01:37.225Z,3.90
2023-04-09T18:03:40.705Z,3.92
2023-04-09T18:05:43.664Z,4.20
2023-04-09T18:07:46.494Z,3.85
2023-04-09T18:09:49.565Z,3.67
2023-04-09T18:11:56.235Z,3.50
2023-04-09T18:16:03.161Z,3.70
2023-04-09T18:18:05.923Z,3.83
2023-04-09T18:20:09.278Z,4.60
2023-04-09T18:22:12.025Z,4.47
2023-04-09T18:24:14.716Z,4.10
2023-04-09T18:26:17.465Z,4.20
2023-04-09T18:28:20.151Z,4.10
2023-04-09T18:30:24.688Z,3.65
2023-04-09T18:32:27.422Z,3.90
2023-04-09T18:34:30.091Z,4.38
2023-04-09T18:36:32.842Z,4.18
2023-04-09T18:38:36.915Z,4.15
2023-04-09T18:40:42.292Z,4.30
2023-04-09T18:42:45.307Z,4.30
2023-04-09T18:44:47.954Z,4.30
2023-04-09T18:46:52.200Z,4.10
2023-04-09T18:48:55.272Z,4.15
2023-04-09T18:50:59.032Z,4.75
2023-04-09T18:53:03.377Z,4.68
2023-04-09T18:55:06.904Z,4.50
2023-04-09T18:57:09.538Z,5.00
2023-04-09T18:59:12.298Z,5.25
2023-04-09T19:01:15.383Z,4.88
2023-04-09T19:03:20.092Z,4.90
2023-04-09T19:05:23.014Z,4.28
2023-04-09T19:07:25.839Z,4.32
2023-04-09T19:09:28.777Z,4.18
2023-04-09T19:11:31.619Z,4.40
2023-04-09T19:13:34.328Z,4.45
2023-04-09T19:15:38.391Z,4.38
2023-04-09T19:17:41.482Z,4.13
2023-04-09T19:19:45.507Z,4.47
2023-04-09T19:21:48.212Z,4.78
2023-04-09T19:23:50.959Z,4.20
2023-04-09T19:25:55.217Z,4.65
2023-04-09T19:27:57.986Z,4.43
2023-04-09T19:30:01.151Z,4.68
2023-04-09T19:32:03.960Z,3.78
2023-04-09T19:34:07.054Z,5.05
2023-04-09T19:36:12.927Z,4.63
2023-04-09T19:38:16.448Z,4.40
2023-04-09T19:40:19.324Z,5.03
2023-04-09T19:42:22.309Z,4.93
2023-04-09T19:44:25.072Z,4.57
2023-04-09T19:46:27.778Z,5.30
2023-04-09T19:48:30.640Z,4.40
2023-04-09T19:50:35.669Z,5.47
2023-04-09T19:52:41.245Z,5.22
2023-04-09T19:54:44.009Z,4.72
2023-04-09T19:56:46.713Z,4.43
2023-04-09T19:58:49.360Z,5.03
2023-04-09T20:00:52.310Z,4.65
2023-04-09T20:02:55.677Z,5.10
2023-04-09T20:04:58.591Z,4.97
2023-04-09T20:07:01.413Z,4.88
2023-04-09T20:09:05.707Z,4.38
2023-04-09T20:11:08.517Z,4.57
2023-04-09T20:13:11.324Z,5.15
2023-04-09T20:15:14.684Z,4.82
2023-04-09T20:17:19.792Z,5.10
2023-04-09T20:19:22.585Z,4.78
2023-04-09T20:21:25.320Z,4.32
2023-04-09T20:23:28.059Z,5.20
2023-04-09T20:25:35.051Z,4.72
2023-04-09T20:27:38.613Z,5.00
2023-04-09T20:29:41.304Z,5.07
2023-04-09T20:31:44.398Z,5.15
2023-04-09T20:33:47.216Z,5.18
2023-04-09T20:35:50.427Z,5.07
2023-04-09T20:37:54.851Z,4.82
2023-04-09T20:39:58.768Z,5.88
2023-04-09T20:42:02.895Z,5.40
2023-04-09T20:44:05.949Z,5.25
2023-04-09T20:46:08.756Z,5.10
2023-04-09T20:48:11.956Z,4.97
2023-04-09T20:50:14.805Z,5.07
2023-04-09T20:52:17.737Z,5.68
2023-04-09T20:54:22.740Z,5.38
2023-04-09T20:56:25.668Z,5.57
2023-04-09T20:58:29.801Z,5.57
2023-04-09T21:00:32.455Z,5.55
2023-04-09T21:02:35.654Z,6.05
2023-04-09T21:04:39.037Z,5.65
2023-04-09T21:06:41.858Z,5.57
2023-04-09T21:08:44.715Z,5.50
2023-04-09T21:10:47.549Z,4.93
2023-04-09T21:12:50.320Z,5.32
2023-04-09T21:14:54.590Z,5.68
2023-04-09T21:16:57.462Z,5.35
2023-04-09T21:19:06.813Z,6.15
2023-04-09T21:21:09.777Z,6.03
2023-04-09T21:23:12.779Z,5.63
2023-04-09T21:25:15.810Z,5.93
2023-04-09T21:27:18.644Z,6.00
2023-04-09T21:29:21.636Z,6.18
2023-04-09T21:31:25.995Z,6.20
2023-04-09T21:33:30.008Z,7.00
2023-04-09T21:35:33.649Z,6.80
2023-04-09T21:37:37.513Z,6.60
2023-04-09T21:39:40.243Z,6.45
2023-04-09T21:41:42.992Z,6.40
2023-04-09T21:43:45.862Z,6.50
2023-04-09T21:45:48.702Z,7.13
2023-04-09T21:47:52.907Z,6.65
2023-04-09T21:49:56.534Z,6.97
2023-04-09T21:52:00.597Z,6.65
2023-04-09T21:54:04.993Z,6.80
2023-04-09T21:56:08.550Z,6.07
2023-04-09T21:58:11.894Z,6.72
2023-04-09T22:00:16.375Z,6.45
2023-04-09T22:02:19.589Z,7.15
2023-04-09T22:04:23.926Z,6.38
2023-04-09T22:06:27.080Z,7.60
2023-04-09T22:08:30.454Z,6.60
2023-04-09T22:10:33.234Z,7.38
2023-04-09T22:12:37.382Z,7.45
2023-04-09T22:14:41.790Z,6.95
2023-04-09T22:16:45.050Z,6.85
2023-04-09T22:18:48.019Z,7.15
2023-04-09T22:20:52.351Z,6.45
2023-04-09T22:22:55.264Z,7.13
2023-04-09T22:24:58.015Z,7.47
2023-04-09T22:27:01.460Z,7.07
2023-04-09T22:29:06.756Z,6.60
2023-04-09T22:31:09.765Z,7.18
2023-04-09T22:33:12.494Z,7.07
2023-04-09T22:35:18.083Z,7.10
2023-04-09T22:37:22.088Z,6.70
2023-04-09T22:39:24.962Z,7.18
2023-04-09T22:41:27.745Z,7.13
2023-04-09T22:43:30.628Z,5.90
2023-04-09T22:45:33.311Z,6.72
2023-04-09T22:47:36.110Z,7.97
2023-04-09T22:49:38.906Z,6.43
2023-04-09T22:51:42.602Z,7.53
2023-04-09T22:53:47.255Z,7.05
2023-04-09T22:55:51.728Z,6.88
2023-04-09T22:57:54.990Z,7.45
2023-04-09T22:59:57.839Z,6.47
2023-04-09T23:02:00.794Z,7.57
2023-04-09T23:04:03.647Z,7.43
2023-04-09T23:06:06.937Z,7.15
2023-04-09T23:08:09.975Z,7.43
2023-04-09T23:10:16.201Z,7.82
2023-04-09T23:12:19.004Z,8.00
2023-04-09T23:14:21.807Z,7.50
2023-04-09T23:16:24.635Z,7.68
2023-04-09T23:18:27.380Z,6.88
2023-04-09T23:20:30.410Z,7.22
2023-04-09T23:22:33.163Z,7.25
2023-04-09T23:24:35.914Z,6.25
2023-04-09T23:26:39.909Z,7.10
2023-04-09T23:28:42.720Z,6.88
2023-04-09T23:30:45.502Z,6.90
2023-04-09T23:32:48.959Z,7.90
2023-04-09T23:34:52.105Z,7.32
2023-04-09T23:36:54.906Z,7.32
2023-04-09T23:38:57.603Z,6.45
2023-04-09T23:41:00.283Z,7.22
2023-04-09T23:43:04.548Z,6.55
2023-04-09T23:45:08.365Z,6.85
2023-04-09T23:47:12.020Z,7.38
2023-04-09T23:49:16.135Z,6.85
2023-04-09T23:51:19.271Z,6.43
2023-04-09T23:53:22.033Z,7.03
2023-04-09T23:55:24.822Z,6.53
2023-04-09T23:57:27.736Z,7.70
2023-04-09T23:59:35.364Z,6.85
